sensor_id;sensor_type;location;lat;lon;timestamp;pressure;altitude;pressure_sealevel;temperature;humidity
58295;BME280;45705;55.592;37.460;2023-04-04T00:01:04;98973.56;;;8.91;100.00
58295;BME280;45705;55.592;37.460;2023-04-04T00:03:30;98973.97;;;8.98;100.00
58295;BME280;45705;55.592;37.460;2023-04-04T00:05:57;98967.91;;;9.01;100.00
58295;BME280;45705;55.592;37.460;2023-04-04T00:08:22;98976.59;;;9.03;100.00
58295;BME280;45705;55.592;37.460;2023-04-04T00:10:48;98973.69;;;9.00;100.00
58295;BME280;45705;55.592;37.460;2023-04-04T00:13:14;98959.28;;;8.99;100.00
58295;BME280;45705;55.592;37.460;2023-04-04T00:15:40;98971.16;;;9.03;100.00
58295;BME280;45705;55.592;37.460;2023-04-04T00:18:05;98966.13;;;8.97;100.00
58295;BME280;45705;55.592;37.460;2023-04-04T00:20:31;98972.84;;;8.99;100.00
58295;BME280;45705;55.592;37.460;2023-04-04T00:22:57;98971.56;;;8.97;100.00
58295;BME280;45705;55.592;37.460;2023-04-04T00:25:23;98964.22;;;8.97;100.00
58295;BME280;45705;55.592;37.460;2023-04-04T00:27:49;98957.19;;;8.96;100.00
58295;BME280;45705;55.592;37.460;2023-04-04T00:30:15;98969.13;;;8.95;100.00
58295;BME280;45705;55.592;37.460;2023-04-04T00:32:41;98966.44;;;8.95;100.00
58295;BME280;45705;55.592;37.460;2023-04-04T00:35:07;98959.91;;;8.96;100.00
58295;BME280;45705;55.592;37.460;2023-04-04T00:37:33;98951.06;;;8.91;100.00
58295;BME280;45705;55.592;37.460;2023-04-04T00:40:00;98955.28;;;8.83;100.00
58295;BME280;45705;55.592;37.460;2023-04-04T00:42:26;98948.66;;;8.89;100.00
58295;BME280;45705;55.592;37.460;2023-04-04T00:44:52;98959.72;;;8.79;100.00
58295;BME280;45705;55.592;37.460;2023-04-04T00:47:21;98959.28;;;8.72;100.00
58295;BME280;45705;55.592;37.460;2023-04-04T00:49:47;98953.88;;;8.72;100.00
58295;BME280;45705;55.592;37.460;2023-04-04T00:52:13;98947.88;;;8.75;100.00
58295;BME280;45705;55.592;37.460;2023-04-04T00:54:39;98956.28;;;8.73;100.00
58295;BME280;45705;55.592;37.460;2023-04-04T00:57:06;98957.72;;;8.71;100.00
58295;BME280;45705;55.592;37.460;2023-04-04T00:59:33;98957.28;;;8.63;100.00
58295;BME280;45705;55.592;37.460;2023-04-04T01:01:59;98963.50;;;8.64;100.00
58295;BME280;45705;55.592;37.460;2023-04-04T01:04:26;98959.50;;;8.75;100.00
58295;BME280;45705;55.592;37.460;2023-04-04T01:06:54;98960.31;;;8.76;100.00
58295;BME280;45705;55.592;37.460;2023-04-04T01:09:21;98953.06;;;8.57;100.00
58295;BME280;45705;55.592;37.460;2023-04-04T01:11:47;98956.16;;;8.64;100.00
58295;BME280;45705;55.592;37.460;2023-04-04T01:14:13;98954.09;;;8.89;100.00
58295;BME280;45705;55.592;37.460;2023-04-04T01:16:40;98954.69;;;8.86;100.00
58295;BME280;45705;55.592;37.460;2023-04-04T01:19:08;98953.59;;;8.87;100.00
58295;BME280;45705;55.592;37.460;2023-04-04T01:21:36;98949.47;;;8.76;100.00
58295;BME280;45705;55.592;37.460;2023-04-04T01:24:03;98947.88;;;8.75;100.00
58295;BME280;45705;55.592;37.460;2023-04-04T01:26:36;98956.88;;;8.56;100.00
58295;BME280;45705;55.592;37.460;2023-04-04T01:29:03;98951.16;;;8.72;100.00
58295;BME280;45705;55.592;37.460;2023-04-04T01:31:33;98956.59;;;8.72;100.00
58295;BME280;45705;55.592;37.460;2023-04-04T01:39:26;98949.25;;;8.58;100.00
58295;BME280;45705;55.592;37.460;2023-04-04T01:41:55;98952.06;;;8.53;100.00
58295;BME280;45705;55.592;37.460;2023-04-04T01:44:21;98953.28;;;8.61;100.00
58295;BME280;45705;55.592;37.460;2023-04-04T01:46:52;98955.56;;;8.54;100.00
58295;BME280;45705;55.592;37.460;2023-04-04T01:49:20;98951.88;;;8.50;100.00
58295;BME280;45705;55.592;37.460;2023-04-04T01:51:45;98951.03;;;8.49;100.00
58295;BME280;45705;55.592;37.460;2023-04-04T01:54:12;98954.41;;;8.41;100.00
58295;BME280;45705;55.592;37.460;2023-04-04T01:56:37;98954.91;;;8.29;100.00
58295;BME280;45705;55.592;37.460;2023-04-04T01:59:03;98950.47;;;8.33;100.00
58295;BME280;45705;55.592;37.460;2023-04-04T02:01:29;98947.56;;;8.29;100.00
58295;BME280;45705;55.592;37.460;2023-04-04T02:03:55;98947.41;;;8.40;100.00
58295;BME280;45705;55.592;37.460;2023-04-04T02:06:21;98949.19;;;8.31;100.00
58295;BME280;45705;55.592;37.460;2023-04-04T02:08:47;98951.03;;;8.49;100.00
58295;BME280;45705;55.592;37.460;2023-04-04T02:11:13;98950.03;;;8.45;100.00
58295;BME280;45705;55.592;37.460;2023-04-04T02:13:39;98945.63;;;8.49;100.00
58295;BME280;45705;55.592;37.460;2023-04-04T02:16:09;98946.03;;;8.42;100.00
58295;BME280;45705;55.592;37.460;2023-04-04T02:18:35;98944.44;;;8.41;100.00
58295;BME280;45705;55.592;37.460;2023-04-04T02:21:01;98940.06;;;8.26;100.00
58295;BME280;45705;55.592;37.460;2023-04-04T02:23:27;98940.13;;;8.21;100.00
58295;BME280;45705;55.592;37.460;2023-04-04T02:25:53;98923.28;;;8.11;100.00
58295;BME280;45705;55.592;37.460;2023-04-04T02:28:19;98941.13;;;8.12;100.00
58295;BME280;45705;55.592;37.460;2023-04-04T02:30:46;98942.53;;;8.09;100.00
58295;BME280;45705;55.592;37.460;2023-04-04T02:33:12;98944.09;;;8.10;100.00
58295;BME280;45705;55.592;37.460;2023-04-04T02:35:38;98940.91;;;8.08;100.00
58295;BME280;45705;55.592;37.460;2023-04-04T02:38:05;98940.91;;;8.08;100.00
58295;BME280;45705;55.592;37.460;2023-04-04T02:40:46;98938.75;;;8.24;100.00
58295;BME280;45705;55.592;37.460;2023-04-04T02:43:12;98944.56;;;8.31;100.00
58295;BME280;45705;55.592;37.460;2023-04-04T02:45:37;98935.72;;;8.25;100.00
58295;BME280;45705;55.592;37.460;2023-04-04T02:48:23;98941.84;;;8.17;100.00
58295;BME280;45705;55.592;37.460;2023-04-04T02:50:58;98947.56;;;8.29;100.00
58295;BME280;45705;55.592;37.460;2023-04-04T02:53:23;98948.00;;;8.37;100.00
58295;BME280;45705;55.592;37.460;2023-04-04T02:55:52;98953.41;;;8.37;100.00
58295;BME280;45705;55.592;37.460;2023-04-04T02:58:18;98947.44;;;8.07;100.00
58295;BME280;45705;55.592;37.460;2023-04-04T03:00:43;98954.28;;;8.18;100.00
58295;BME280;45705;55.592;37.460;2023-04-04T03:03:11;98963.16;;;8.38;100.00
58295;BME280;45705;55.592;37.460;2023-04-04T03:05:42;98954.94;;;8.43;100.00
58295;BME280;45705;55.592;37.460;2023-04-04T03:08:08;98952.44;;;8.46;100.00
58295;BME280;45705;55.592;37.460;2023-04-04T03:10:34;98952.75;;;8.45;100.00
58295;BME280;45705;55.592;37.460;2023-04-04T03:12:59;98945.53;;;8.21;100.00
58295;BME280;45705;55.592;37.460;2023-04-04T03:15:27;98949.59;;;8.24;100.00
58295;BME280;45705;55.592;37.460;2023-04-04T03:17:53;98950.88;;;8.26;100.00
58295;BME280;45705;55.592;37.460;2023-04-04T03:20:23;98945.75;;;8.25;100.00
58295;BME280;45705;55.592;37.460;2023-04-04T03:22:50;98945.78;;;8.39;100.00
58295;BME280;45705;55.592;37.460;2023-04-04T03:25:16;98943.03;;;8.11;100.00
58295;BME280;45705;55.592;37.460;2023-04-04T03:27:41;98948.50;;;8.06;100.00
58295;BME280;45705;55.592;37.460;2023-04-04T03:30:08;98949.38;;;8.20;100.00
58295;BME280;45705;55.592;37.460;2023-04-04T03:32:37;98956.34;;;8.07;100.00
58295;BME280;45705;55.592;37.460;2023-04-04T03:35:05;98949.25;;;8.25;100.00
58295;BME280;45705;55.592;37.460;2023-04-04T03:37:31;98957.72;;;8.24;100.00
58295;BME280;45705;55.592;37.460;2023-04-04T03:39:57;98953.41;;;8.37;100.00
58295;BME280;45705;55.592;37.460;2023-04-04T03:42:24;98956.06;;;8.42;100.00
58295;BME280;45705;55.592;37.460;2023-04-04T03:44:51;98949.22;;;8.44;100.00
58295;BME280;45705;55.592;37.460;2023-04-04T03:47:28;98947.25;;;8.50;100.00
58295;BME280;45705;55.592;37.460;2023-04-04T03:49:56;98934.16;;;8.38;100.00
58295;BME280;45705;55.592;37.460;2023-04-04T03:52:23;98958.66;;;8.47;100.00
58295;BME280;45705;55.592;37.460;2023-04-04T03:54:48;98951.88;;;8.50;100.00
58295;BME280;45705;55.592;37.460;2023-04-04T03:57:14;98955.91;;;8.33;100.00
58295;BME280;45705;55.592;37.460;2023-04-04T03:59:41;98960.00;;;8.50;100.00
58295;BME280;45705;55.592;37.460;2023-04-04T04:02:08;98962.28;;;8.56;100.00
58295;BME280;45705;55.592;37.460;2023-04-04T04:04:34;98951.38;;;8.61;100.00
58295;BME280;45705;55.592;37.460;2023-04-04T04:06:59;98950.66;;;8.56;100.00
58295;BME280;45705;55.592;37.460;2023-04-04T04:09:26;98943.03;;;8.58;100.00
58295;BME280;45705;55.592;37.460;2023-04-04T04:11:52;98952.16;;;8.76;100.00
58295;BME280;45705;55.592;37.460;2023-04-04T04:14:18;98950.25;;;8.62;100.00
58295;BME280;45705;55.592;37.460;2023-04-04T04:16:44;98952.66;;;8.78;100.00
58295;BME280;45705;55.592;37.460;2023-04-04T04:19:14;98949.56;;;8.84;100.00
58295;BME280;45705;55.592;37.460;2023-04-04T04:21:41;98953.50;;;8.92;100.00
58295;BME280;45705;55.592;37.460;2023-04-04T04:24:08;98951.56;;;9.06;100.00
58295;BME280;45705;55.592;37.460;2023-04-04T04:26:34;98954.44;;;9.24;100.00
58295;BME280;45705;55.592;37.460;2023-04-04T04:29:00;98954.19;;;9.12;100.00
58295;BME280;45705;55.592;37.460;2023-04-04T04:31:30;98957.16;;;9.24;100.00
58295;BME280;45705;55.592;37.460;2023-04-04T04:33:56;98952.84;;;9.23;100.00
58295;BME280;45705;55.592;37.460;2023-04-04T04:36:26;98957.09;;;9.15;100.00
58295;BME280;45705;55.592;37.460;2023-04-04T04:39:12;98959.09;;;9.10;100.00
58295;BME280;45705;55.592;37.460;2023-04-04T04:41:43;98960.50;;;9.07;100.00
58295;BME280;45705;55.592;37.460;2023-04-04T04:44:10;98961.59;;;9.20;100.00
58295;BME280;45705;55.592;37.460;2023-04-04T04:46:36;98943.41;;;9.06;100.00
58295;BME280;45705;55.592;37.460;2023-04-04T04:49:09;98961.25;;;9.35;100.00
58295;BME280;45705;55.592;37.460;2023-04-04T04:51:35;98962.66;;;9.46;100.00
58295;BME280;45705;55.592;37.460;2023-04-04T04:54:01;98961.47;;;9.39;100.00
58295;BME280;45705;55.592;37.460;2023-04-04T04:56:27;98953.06;;;9.13;100.00
58295;BME280;45705;55.592;37.460;2023-04-04T04:58:58;98960.25;;;9.45;100.00
58295;BME280;45705;55.592;37.460;2023-04-04T05:01:26;98959.25;;;9.77;99.28
58295;BME280;45705;55.592;37.460;2023-04-04T05:03:54;98955.16;;;10.11;96.24
58295;BME280;45705;55.592;37.460;2023-04-04T05:06:26;98958.56;;;9.94;93.66
58295;BME280;45705;55.592;37.460;2023-04-04T05:08:53;98950.09;;;10.18;94.22
58295;BME280;45705;55.592;37.460;2023-04-04T05:11:28;98952.72;;;10.55;90.66
58295;BME280;45705;55.592;37.460;2023-04-04T05:13:54;98955.53;;;10.18;91.71
58295;BME280;45705;55.592;37.460;2023-04-04T05:16:21;98945.75;;;10.71;88.96
58295;BME280;45705;55.592;37.460;2023-04-04T05:18:48;98939.34;;;11.33;83.22
58295;BME280;45705;55.592;37.460;2023-04-04T05:21:14;98924.81;;;12.46;78.08
58295;BME280;45705;55.592;37.460;2023-04-04T05:23:41;98937.16;;;12.91;71.97
58295;BME280;45705;55.592;37.460;2023-04-04T05:26:07;98923.81;;;11.86;76.14
58295;BME280;45705;55.592;37.460;2023-04-04T05:28:36;98935.47;;;12.39;75.24
58295;BME280;45705;55.592;37.460;2023-04-04T05:31:04;98930.63;;;13.64;69.48
58295;BME280;45705;55.592;37.460;2023-04-04T05:33:32;98941.53;;;12.83;68.72
58295;BME280;45705;55.592;37.460;2023-04-04T05:36:27;98943.06;;;11.81;74.52
58295;BME280;45705;55.592;37.460;2023-04-04T05:38:58;98946.41;;;11.43;75.85
58295;BME280;45705;55.592;37.460;2023-04-04T05:41:28;98935.03;;;13.26;68.42
58295;BME280;45705;55.592;37.460;2023-04-04T05:44:00;98940.78;;;14.42;62.21
58295;BME280;45705;55.592;37.460;2023-04-04T05:46:26;98926.94;;;13.81;59.73
58295;BME280;45705;55.592;37.460;2023-04-04T05:48:53;98934.09;;;14.06;60.39
58295;BME280;45705;55.592;37.460;2023-04-04T05:51:20;98934.53;;;13.54;63.88
58295;BME280;45705;55.592;37.460;2023-04-04T05:53:56;98927.94;;;14.43;59.55
58295;BME280;45705;55.592;37.460;2023-04-04T05:56:28;98929.81;;;14.30;60.13
58295;BME280;45705;55.592;37.460;2023-04-04T05:58:56;98935.69;;;14.07;61.10
58295;BME280;45705;55.592;37.460;2023-04-04T06:01:24;98925.75;;;13.69;61.92
58295;BME280;45705;55.592;37.460;2023-04-04T06:03:53;98934.56;;;12.94;65.78
58295;BME280;45705;55.592;37.460;2023-04-04T06:06:24;98938.44;;;12.93;66.78
58295;BME280;45705;55.592;37.460;2023-04-04T06:08:50;98931.59;;;12.40;68.76
58295;BME280;45705;55.592;37.460;2023-04-04T06:11:16;98941.97;;;11.91;73.24
58295;BME280;45705;55.592;37.460;2023-04-04T06:13:42;98938.38;;;12.16;72.76
58295;BME280;45705;55.592;37.460;2023-04-04T06:16:13;98939.72;;;11.93;73.70
58295;BME280;45705;55.592;37.460;2023-04-04T06:18:39;98945.47;;;11.65;76.42
58295;BME280;45705;55.592;37.460;2023-04-04T06:21:04;98943.53;;;11.57;76.56
58295;BME280;45705;55.592;37.460;2023-04-04T06:23:31;98947.69;;;11.98;74.84
58295;BME280;45705;55.592;37.460;2023-04-04T06:25:56;98949.63;;;11.71;77.01
58295;BME280;45705;55.592;37.460;2023-04-04T06:28:23;98948.00;;;11.88;75.03
58295;BME280;45705;55.592;37.460;2023-04-04T06:30:50;98951.25;;;10.89;78.96
58295;BME280;45705;55.592;37.460;2023-04-04T06:33:25;98952.94;;;10.76;82.88
58295;BME280;45705;55.592;37.460;2023-04-04T06:35:51;98939.66;;;11.23;80.74
58295;BME280;45705;55.592;37.460;2023-04-04T06:38:17;98948.94;;;11.22;80.77
58295;BME280;45705;55.592;37.460;2023-04-04T06:40:43;98954.19;;;11.10;80.62
58295;BME280;45705;55.592;37.460;2023-04-04T06:43:08;98952.88;;;10.90;80.22
58295;BME280;45705;55.592;37.460;2023-04-04T06:45:42;98956.97;;;11.45;78.44
58295;BME280;45705;55.592;37.460;2023-04-04T06:48:08;98958.25;;;11.38;78.07
58295;BME280;45705;55.592;37.460;2023-04-04T06:51:03;98957.63;;;11.50;76.75
58295;BME280;45705;55.592;37.460;2023-04-04T06:53:29;98964.19;;;10.83;80.90
58295;BME280;45705;55.592;37.460;2023-04-04T06:55:55;98956.59;;;11.20;80.58
58295;BME280;45705;55.592;37.460;2023-04-04T06:58:21;98948.94;;;11.13;77.60
58295;BME280;45705;55.592;37.460;2023-04-04T07:00:46;98957.84;;;10.96;79.48
58295;BME280;45705;55.592;37.460;2023-04-04T07:03:12;98951.06;;;10.85;79.87
58295;BME280;45705;55.592;37.460;2023-04-04T07:05:38;98956.44;;;11.08;78.35
58295;BME280;45705;55.592;37.460;2023-04-04T07:08:04;98959.84;;;11.31;77.70
58295;BME280;45705;55.592;37.460;2023-04-04T07:10:31;98955.34;;;11.26;75.52
58295;BME280;45705;55.592;37.460;2023-04-04T07:12:56;98955.34;;;11.26;75.28
58295;BME280;45705;55.592;37.460;2023-04-04T07:15:22;98961.56;;;11.18;76.95
58295;BME280;45705;55.592;37.460;2023-04-04T07:17:48;98967.28;;;12.00;72.71
58295;BME280;45705;55.592;37.460;2023-04-04T07:20:14;98968.53;;;11.94;73.03
58295;BME280;45705;55.592;37.460;2023-04-04T07:22:40;98967.91;;;11.97;71.35
58295;BME280;45705;55.592;37.460;2023-04-04T07:25:07;98970.59;;;11.71;72.25
58295;BME280;45705;55.592;37.460;2023-04-04T07:27:33;98970.94;;;12.21;70.34
58295;BME280;45705;55.592;37.460;2023-04-04T07:29:58;98964.31;;;12.40;68.51
58295;BME280;45705;55.592;37.460;2023-04-04T07:32:24;98963.69;;;12.34;67.05
58295;BME280;45705;55.592;37.460;2023-04-04T07:34:50;98965.00;;;11.58;69.00
58295;BME280;45705;55.592;37.460;2023-04-04T07:37:16;98966.97;;;11.93;68.47
58295;BME280;45705;55.592;37.460;2023-04-04T07:39:41;98971.59;;;12.10;68.86
58295;BME280;45705;55.592;37.460;2023-04-04T07:42:07;98963.22;;;12.15;68.56
58295;BME280;45705;55.592;37.460;2023-04-04T07:44:33;98965.91;;;12.41;66.28
58295;BME280;45705;55.592;37.460;2023-04-04T07:46:58;98962.72;;;12.39;65.74
58295;BME280;45705;55.592;37.460;2023-04-04T07:49:24;98961.38;;;12.63;63.10
58295;BME280;45705;55.592;37.460;2023-04-04T07:51:50;98955.13;;;13.22;60.47
58295;BME280;45705;55.592;37.460;2023-04-04T07:54:15;98952.00;;;13.83;57.10
58295;BME280;45705;55.592;37.460;2023-04-04T07:56:41;98953.69;;;14.08;54.85
58295;BME280;45705;55.592;37.460;2023-04-04T07:59:07;98957.06;;;14.84;52.44
58295;BME280;45705;55.592;37.460;2023-04-04T08:01:32;98946.34;;;14.67;52.39
58295;BME280;45705;55.592;37.460;2023-04-04T08:03:58;98959.56;;;14.19;53.97
58295;BME280;45705;55.592;37.460;2023-04-04T08:06:24;98968.09;;;13.33;57.16
58295;BME280;45705;55.592;37.460;2023-04-04T08:08:51;98949.00;;;13.75;56.24
58295;BME280;45705;55.592;37.460;2023-04-04T08:11:17;98944.22;;;14.39;54.46
58295;BME280;45705;55.592;37.460;2023-04-04T08:13:43;98944.75;;;14.90;52.39
58295;BME280;45705;55.592;37.460;2023-04-04T08:16:08;98958.63;;;14.61;52.79
58295;BME280;45705;55.592;37.460;2023-04-04T08:18:34;98955.19;;;13.85;54.45
58295;BME280;45705;55.592;37.460;2023-04-04T08:21:00;98942.00;;;13.45;55.73
58295;BME280;45705;55.592;37.460;2023-04-04T08:23:25;98958.53;;;13.90;55.17
58295;BME280;45705;55.592;37.460;2023-04-04T08:25:52;98953.19;;;13.94;55.06
58295;BME280;45705;55.592;37.460;2023-04-04T08:28:18;98961.84;;;14.29;53.82
58295;BME280;45705;55.592;37.460;2023-04-04T08:30:44;98956.31;;;14.17;53.59
58295;BME280;45705;55.592;37.460;2023-04-04T08:33:09;98961.25;;;14.24;52.90
58295;BME280;45705;55.592;37.460;2023-04-04T08:35:35;98953.91;;;14.36;52.60
58295;BME280;45705;55.592;37.460;2023-04-04T08:38:01;98950.91;;;14.87;50.83
58295;BME280;45705;55.592;37.460;2023-04-04T08:40:30;98956.59;;;14.70;50.59
58295;BME280;45705;55.592;37.460;2023-04-04T08:42:57;98963.00;;;14.74;50.82
58295;BME280;45705;55.592;37.460;2023-04-04T08:45:27;98960.81;;;14.34;51.82
58295;BME280;45705;55.592;37.460;2023-04-04T08:47:57;98959.59;;;13.98;53.66
58295;BME280;45705;55.592;37.460;2023-04-04T08:50:23;98972.53;;;13.89;53.50
58295;BME280;45705;55.592;37.460;2023-04-04T08:52:51;98968.25;;;14.00;53.38
58295;BME280;45705;55.592;37.460;2023-04-04T08:55:17;98970.25;;;13.70;54.82
58295;BME280;45705;55.592;37.460;2023-04-04T08:57:44;98973.53;;;13.63;54.99
58295;BME280;45705;55.592;37.460;2023-04-04T09:00:12;98967.56;;;13.82;54.19
58295;BME280;45705;55.592;37.460;2023-04-04T09:03:04;98972.53;;;13.68;54.41
58295;BME280;45705;55.592;37.460;2023-04-04T09:05:31;98984.78;;;13.83;55.16
58295;BME280;45705;55.592;37.460;2023-04-04T09:07:58;98986.66;;;13.70;54.19
58295;BME280;45705;55.592;37.460;2023-04-04T09:10:23;98996.91;;;13.52;55.11
58295;BME280;45705;55.592;37.460;2023-04-04T09:12:50;98993.59;;;13.67;56.08
58295;BME280;45705;55.592;37.460;2023-04-04T09:15:16;98990.63;;;13.72;55.46
58295;BME280;45705;55.592;37.460;2023-04-04T09:17:42;98992.25;;;13.73;55.54
58295;BME280;45705;55.592;37.460;2023-04-04T09:20:33;98986.78;;;13.73;55.86
58295;BME280;45705;55.592;37.460;2023-04-04T09:23:00;98994.25;;;13.85;56.89
58295;BME280;45705;55.592;37.460;2023-04-04T09:25:26;98992.53;;;13.81;55.12
58295;BME280;45705;55.592;37.460;2023-04-04T09:27:52;99008.22;;;13.42;55.96
58295;BME280;45705;55.592;37.460;2023-04-04T09:30:19;98997.94;;;13.38;56.70
58295;BME280;45705;55.592;37.460;2023-04-04T09:32:45;98986.22;;;14.01;55.10
58295;BME280;45705;55.592;37.460;2023-04-04T09:35:11;98990.28;;;14.49;52.99
58295;BME280;45705;55.592;37.460;2023-04-04T09:37:43;98986.72;;;14.70;51.52
58295;BME280;45705;55.592;37.460;2023-04-04T09:40:09;98980.13;;;15.20;49.98
58295;BME280;45705;55.592;37.460;2023-04-04T09:42:35;98978.28;;;15.36;50.74
58295;BME280;45705;55.592;37.460;2023-04-04T09:45:01;98985.13;;;15.30;50.64
58295;BME280;45705;55.592;37.460;2023-04-04T09:47:29;98989.00;;;14.80;51.99
58295;BME280;45705;55.592;37.460;2023-04-04T09:49:59;98990.69;;;14.85;51.40
58295;BME280;45705;55.592;37.460;2023-04-04T09:52:25;98993.56;;;15.50;50.25
58295;BME280;45705;55.592;37.460;2023-04-04T09:54:58;98985.47;;;15.41;49.94
58295;BME280;45705;55.592;37.460;2023-04-04T09:57:28;98991.28;;;15.27;50.66
58295;BME280;45705;55.592;37.460;2023-04-04T09:59:59;98989.69;;;15.51;49.90
58295;BME280;45705;55.592;37.460;2023-04-04T10:02:26;98991.34;;;16.21;47.86
58295;BME280;45705;55.592;37.460;2023-04-04T10:04:55;98986.66;;;15.81;48.52
58295;BME280;45705;55.592;37.460;2023-04-04T10:07:31;99000.56;;;15.10;47.40
58295;BME280;45705;55.592;37.460;2023-04-04T10:10:01;99003.81;;;14.79;48.50
58295;BME280;45705;55.592;37.460;2023-04-04T10:12:29;99001.97;;;14.59;49.09
58295;BME280;45705;55.592;37.460;2023-04-04T10:14:56;99005.28;;;14.31;49.46
58295;BME280;45705;55.592;37.460;2023-04-04T10:17:23;99004.75;;;14.16;48.89
58295;BME280;45705;55.592;37.460;2023-04-04T10:19:51;98999.75;;;14.18;49.56
58295;BME280;45705;55.592;37.460;2023-04-04T10:22:19;99011.75;;;14.60;49.40
58295;BME280;45705;55.592;37.460;2023-04-04T10:24:45;98993.69;;;15.04;48.80
58295;BME280;45705;55.592;37.460;2023-04-04T10:27:11;99006.38;;;15.09;47.90
58295;BME280;45705;55.592;37.460;2023-04-04T10:29:37;99012.56;;;14.60;48.90
58295;BME280;45705;55.592;37.460;2023-04-04T10:32:08;99010.66;;;14.73;46.41
58295;BME280;45705;55.592;37.460;2023-04-04T10:34:48;99009.31;;;15.04;45.94
58295;BME280;45705;55.592;37.460;2023-04-04T10:37:20;99012.06;;;15.16;47.21
58295;BME280;45705;55.592;37.460;2023-04-04T10:39:51;99014.44;;;15.18;48.02
58295;BME280;45705;55.592;37.460;2023-04-04T10:42:18;99017.16;;;14.81;48.71
58295;BME280;45705;55.592;37.460;2023-04-04T10:44:44;99014.53;;;14.72;48.79
58295;BME280;45705;55.592;37.460;2023-04-04T10:47:17;99012.72;;;14.88;48.87
58295;BME280;45705;55.592;37.460;2023-04-04T10:49:45;99008.19;;;15.17;48.69
58295;BME280;45705;55.592;37.460;2023-04-04T10:52:15;99008.50;;;14.79;49.85
58295;BME280;45705;55.592;37.460;2023-04-04T10:54:42;99012.72;;;14.88;49.64
58295;BME280;45705;55.592;37.460;2023-04-04T10:57:10;99018.97;;;14.64;48.63
58295;BME280;45705;55.592;37.460;2023-04-04T11:00:01;99019.09;;;14.68;49.26
58295;BME280;45705;55.592;37.460;2023-04-04T11:07:55;99020.03;;;14.96;50.29
58295;BME280;45705;55.592;37.460;2023-04-04T11:12:55;99011.72;;;15.18;45.67
58295;BME280;45705;55.592;37.460;2023-04-04T11:15:25;99015.03;;;15.23;45.50
58295;BME280;45705;55.592;37.460;2023-04-04T11:17:57;98995.06;;;14.98;45.96
58295;BME280;45705;55.592;37.460;2023-04-04T11:20:27;99008.53;;;15.03;47.50
58295;BME280;45705;55.592;37.460;2023-04-04T11:25:34;99006.81;;;15.23;45.30
58295;BME280;45705;55.592;37.460;2023-04-04T11:39:24;99008.06;;;15.01;45.27
58295;BME280;45705;55.592;37.460;2023-04-04T11:42:04;99014.53;;;14.72;46.49
58295;BME280;45705;55.592;37.460;2023-04-04T11:47:19;99015.91;;;14.66;47.91
58295;BME280;45705;55.592;37.460;2023-04-04T11:49:48;99009.00;;;14.60;48.44
58295;BME280;45705;55.592;37.460;2023-04-04T11:52:15;99007.91;;;14.73;48.10
58295;BME280;45705;55.592;37.460;2023-04-04T11:54:43;99012.72;;;14.76;48.47
58295;BME280;45705;55.592;37.460;2023-04-04T11:57:13;99004.00;;;14.62;47.96
58295;BME280;45705;55.592;37.460;2023-04-04T11:59:44;99007.38;;;14.92;47.69
58295;BME280;45705;55.592;37.460;2023-04-04T12:02:11;99010.69;;;14.98;47.20
58295;BME280;45705;55.592;37.460;2023-04-04T12:04:39;99012.53;;;15.30;46.67
58295;BME280;45705;55.592;37.460;2023-04-04T12:07:10;99008.53;;;15.28;46.22
58295;BME280;45705;55.592;37.460;2023-04-04T12:09:37;99010.09;;;15.53;45.74
58295;BME280;45705;55.592;37.460;2023-04-04T12:12:03;99009.06;;;15.70;44.83
58295;BME280;45705;55.592;37.460;2023-04-04T12:14:31;99005.66;;;15.61;45.32
58295;BME280;45705;55.592;37.460;2023-04-04T12:16:57;99008.94;;;15.67;44.84
58295;BME280;45705;55.592;37.460;2023-04-04T12:19:27;99005.63;;;15.73;44.31
58295;BME280;45705;55.592;37.460;2023-04-04T12:21:55;99013.06;;;15.73;44.49
58295;BME280;45705;55.592;37.460;2023-04-04T12:24:21;99008.03;;;15.50;45.74
58295;BME280;45705;55.592;37.460;2023-04-04T12:26:50;99015.22;;;15.67;44.96
58295;BME280;45705;55.592;37.460;2023-04-04T12:29:17;99010.81;;;16.03;43.78
58295;BME280;45705;55.592;37.460;2023-04-04T12:31:45;99014.63;;;16.27;42.66
58295;BME280;45705;55.592;37.460;2023-04-04T12:34:20;99016.72;;;15.15;45.62
58295;BME280;45705;55.592;37.460;2023-04-04T12:36:52;99026.41;;;14.88;46.57
58295;BME280;45705;55.592;37.460;2023-04-04T12:39:19;99030.88;;;15.05;45.65
58295;BME280;45705;55.592;37.460;2023-04-04T12:41:57;99026.44;;;15.50;44.65
58295;BME280;45705;55.592;37.460;2023-04-04T12:44:34;99034.84;;;15.69;43.99
58295;BME280;45705;55.592;37.460;2023-04-04T12:47:02;99038.03;;;15.96;43.82
58295;BME280;45705;55.592;37.460;2023-04-04T12:49:48;99029.94;;;15.87;43.64
58295;BME280;45705;55.592;37.460;2023-04-04T12:52:26;99029.53;;;16.01;43.11
58295;BME280;45705;55.592;37.460;2023-04-04T12:54:52;99034.78;;;15.53;42.99
58295;BME280;45705;55.592;37.460;2023-04-04T12:57:23;99029.88;;;15.22;44.09
58295;BME280;45705;55.592;37.460;2023-04-04T12:59:49;99026.41;;;15.62;43.04
58295;BME280;45705;55.592;37.460;2023-04-04T13:02:16;99029.88;;;15.34;44.19
58295;BME280;45705;55.592;37.460;2023-04-04T13:04:53;99034.06;;;15.69;43.22
58295;BME280;45705;55.592;37.460;2023-04-04T13:07:24;99036.25;;;15.63;42.58
58295;BME280;45705;55.592;37.460;2023-04-04T13:09:58;99036.91;;;15.60;43.02
58295;BME280;45705;55.592;37.460;2023-04-04T13:12:25;99039.88;;;15.80;42.37
58295;BME280;45705;55.592;37.460;2023-04-04T13:15:00;99048.13;;;15.18;44.03
58295;BME280;45705;55.592;37.460;2023-04-04T13:17:43;99052.94;;;15.46;43.66
58295;BME280;45705;55.592;37.460;2023-04-04T13:20:10;99056.81;;;15.57;43.66
58295;BME280;45705;55.592;37.460;2023-04-04T13:22:37;99052.69;;;15.63;43.61
58295;BME280;45705;55.592;37.460;2023-04-04T13:25:04;99059.09;;;15.18;44.31